createdAt,value
2017-10-06T00:01:50.877Z,79.21
2017-10-06T00:04:18.328Z,80.16
2017-10-06T00:06:45.809Z,80.53
2017-10-06T00:09:13.282Z,80.82
2017-10-06T00:11:40.780Z,81.21
2017-10-06T00:14:08.269Z,81.50
2017-10-06T00:16:35.734Z,81.53
2017-10-06T00:19:03.253Z,82.08
2017-10-06T00:21:30.717Z,82.14
2017-10-06T00:23:58.217Z,81.99
2017-10-06T00:26:25.667Z,82.11
2017-10-06T00:28:53.158Z,81.86
2017-10-06T00:31:20.635Z,81.90
2017-10-06T00:33:48.116Z,81.19
2017-10-06T00:36:15.587Z,81.64
2017-10-06T00:38:43.045Z,81.96
2017-10-06T00:41:10.524Z,81.38
2017-10-06T00:43:37.981Z,80.91
2017-10-06T00:46:05.460Z,80.45
2017-10-06T00:48:32.910Z,80.18
2017-10-06T00:51:00.416Z,80.53
2017-10-06T00:53:27.891Z,81.09
2017-10-06T00:55:55.403Z,81.63
2017-10-06T00:58:22.892Z,81.54
2017-10-06T01:00:50.349Z,79.78
2017-10-06T01:03:17.843Z,79.02
2017-10-06T01:05:45.294Z,78.90
2017-10-06T01:08:12.825Z,79.05
2017-10-06T01:10:40.286Z,78.70
2017-10-06T01:13:07.773Z,78.89
2017-10-06T01:15:35.227Z,79.29
2017-10-06T01:18:02.727Z,79.70
2017-10-06T01:20:30.176Z,79.52
2017-10-06T01:22:57.637Z,79.43
2017-10-06T01:25:25.092Z,79.42
2017-10-06T01:27:52.580Z,79.84
2017-10-06T01:30:20.052Z,79.40
2017-10-06T01:32:47.500Z,79.63
2017-10-06T01:35:14.983Z,79.76
2017-10-06T01:37:42.466Z,80.02
2017-10-06T01:40:09.938Z,79.98
2017-10-06T01:42:37.390Z,80.52
2017-10-06T01:45:04.865Z,80.40
2017-10-06T01:47:32.338Z,80.16
2017-10-06T01:49:59.828Z,79.38
2017-10-06T01:52:27.284Z,77.87
2017-10-06T01:54:54.778Z,77.77
2017-10-06T01:57:22.272Z,77.81
2017-10-06T01:59:49.724Z,77.71
2017-10-06T02:02:17.549Z,77.78
2017-10-06T02:04:45.004Z,77.66
2017-10-06T02:07:12.485Z,77.79
2017-10-06T02:09:39.951Z,78.03
2017-10-06T02:12:07.432Z,78.07
2017-10-06T02:14:34.905Z,78.22
2017-10-06T02:17:02.348Z,78.33
2017-10-06T02:19:29.848Z,78.35
2017-10-06T02:21:57.301Z,78.27
2017-10-06T02:24:24.772Z,78.47
2017-10-06T02:26:52.262Z,78.87
2017-10-06T02:29:19.757Z,78.78
2017-10-06T02:31:47.209Z,78.75
2017-10-06T02:34:14.695Z,78.90
2017-10-06T02:36:42.190Z,79.19
2017-10-06T02:39:09.681Z,79.46
2017-10-06T02:41:37.159Z,80.58
2017-10-06T02:44:04.614Z,81.60
2017-10-06T02:46:32.091Z,81.92
2017-10-06T02:48:59.566Z,82.17
2017-10-06T02:51:27.052Z,81.92
2017-10-06T02:53:54.531Z,81.79
2017-10-06T02:56:22.033Z,82.02
2017-10-06T02:58:49.492Z,82.35
2017-10-06T03:01:16.990Z,82.36
2017-10-06T03:03:44.455Z,82.45
2017-10-06T03:06:11.921Z,82.53
2017-10-06T03:08:39.400Z,82.64
2017-10-06T03:11:06.862Z,82.60
2017-10-06T03:13:34.336Z,82.54
2017-10-06T03:16:01.814Z,82.62
2017-10-06T03:18:29.332Z,82.53
2017-10-06T03:20:56.787Z,82.43
2017-10-06T03:23:24.317Z,82.28
2017-10-06T03:25:51.752Z,81.90
2017-10-06T03:28:19.252Z,81.30
2017-10-06T03:30:46.721Z,80.98
2017-10-06T03:33:14.206Z,80.59
2017-10-06T03:35:41.656Z,80.11
2017-10-06T03:38:09.139Z,80.22
2017-10-06T03:40:36.593Z,80.24
2017-10-06T03:43:04.070Z,80.24
2017-10-06T03:45:31.549Z,80.31
2017-10-06T03:47:59.003Z,79.98
2017-10-06T03:50:26.475Z,79.36
2017-10-06T03:52:53.925Z,79.52
2017-10-06T03:55:21.412Z,79.75
2017-10-06T03:57:48.865Z,79.46
2017-10-06T04:00:16.345Z,79.69
2017-10-06T04:02:43.810Z,79.71
2017-10-06T04:05:11.317Z,80.55
2017-10-06T04:07:38.802Z,80.25
2017-10-06T04:10:06.261Z,79.60
2017-10-06T04:12:33.745Z,79.28
2017-10-06T04:15:01.213Z,79.12
2017-10-06T04:17:28.737Z,79.59
2017-10-06T04:19:56.194Z,79.80
2017-10-06T04:22:23.666Z,79.47
2017-10-06T04:24:51.134Z,79.19
2017-10-06T04:27:18.655Z,78.60
2017-10-06T04:29:46.144Z,78.52
2017-10-06T04:32:14.677Z,78.42
2017-10-06T04:34:42.199Z,78.71
2017-10-06T04:37:09.654Z,78.72
2017-10-06T04:39:37.141Z,78.59
2017-10-06T04:42:04.619Z,78.16
2017-10-06T04:44:32.097Z,78.13
2017-10-06T04:46:59.584Z,78.12
2017-10-06T04:49:27.069Z,78.01
2017-10-06T04:51:54.533Z,77.99
2017-10-06T04:54:22.041Z,78.36
2017-10-06T04:56:49.552Z,78.71
2017-10-06T04:59:17.033Z,78.84
2017-10-06T05:01:44.496Z,78.78
2017-10-06T05:04:11.995Z,78.83
2017-10-06T05:06:41.598Z,79.11
2017-10-06T05:09:09.089Z,79.19
2017-10-06T05:11:37.610Z,79.16
2017-10-06T05:14:05.125Z,78.90
2017-10-06T05:16:32.613Z,78.97
2017-10-06T05:19:00.089Z,79.00
2017-10-06T05:21:27.611Z,79.02
2017-10-06T05:23:55.132Z,79.06
2017-10-06T05:26:22.752Z,79.11
2017-10-06T05:28:50.383Z,79.19
2017-10-06T05:31:17.978Z,79.21
2017-10-06T05:33:45.441Z,79.36
2017-10-06T05:36:12.913Z,79.37
2017-10-06T05:38:40.449Z,79.20
2017-10-06T05:41:07.902Z,79.32
2017-10-06T05:43:35.541Z,79.41
2017-10-06T05:46:03.004Z,79.12
2017-10-06T05:48:30.465Z,79.13
2017-10-06T05:50:57.958Z,78.99
2017-10-06T05:53:25.404Z,78.77
2017-10-06T05:55:52.894Z,79.11
2017-10-06T05:58:20.387Z,79.20
2017-10-06T06:00:47.905Z,79.28
2017-10-06T06:03:15.391Z,79.40
2017-10-06T06:05:42.897Z,79.45
2017-10-06T06:08:14.273Z,79.23
2017-10-06T06:10:41.757Z,79.55
2017-10-06T06:13:09.260Z,79.85
2017-10-06T06:15:36.741Z,79.84
2017-10-06T06:18:04.222Z,79.92
2017-10-06T06:20:32.445Z,79.62
2017-10-06T06:23:00.001Z,79.42
2017-10-06T06:25:27.516Z,79.31
2017-10-06T06:27:55.007Z,79.43
2017-10-06T06:30:22.460Z,79.18
2017-10-06T06:32:49.946Z,79.05
2017-10-06T06:35:17.506Z,78.84
2017-10-06T06:37:45.017Z,78.54
2017-10-06T06:40:12.512Z,78.62
2017-10-06T06:42:40.041Z,78.68
2017-10-06T06:45:07.584Z,78.29
2017-10-06T06:47:35.077Z,78.32
2017-10-06T06:50:02.550Z,77.93
2017-10-06T06:52:30.041Z,77.89
2017-10-06T06:54:57.912Z,77.81
2017-10-06T06:57:25.438Z,77.64
2017-10-06T06:59:52.913Z,77.49
2017-10-06T07:02:20.395Z,77.44
2017-10-06T07:04:47.875Z,77.50
2017-10-06T07:07:15.504Z,77.41
2017-10-06T07:09:44.319Z,77.64
2017-10-06T07:12:11.830Z,77.55
2017-10-06T07:14:39.292Z,77.59
2017-10-06T07:17:06.799Z,77.49
2017-10-06T07:19:34.342Z,77.29
2017-10-06T07:22:01.807Z,77.11
2017-10-06T07:24:29.306Z,77.22
2017-10-06T07:26:56.773Z,76.25
2017-10-06T07:29:24.309Z,75.50
2017-10-06T07:31:51.788Z,75.48
2017-10-06T07:34:19.299Z,75.35
2017-10-06T07:36:46.786Z,74.26
2017-10-06T07:39:14.303Z,74.40
2017-10-06T07:41:41.856Z,74.99
2017-10-06T07:44:09.312Z,74.64
2017-10-06T07:46:36.801Z,74.05
2017-10-06T07:49:04.297Z,73.59
2017-10-06T07:51:31.825Z,73.68
2017-10-06T07:53:59.632Z,73.78
2017-10-06T07:56:27.131Z,73.40
2017-10-06T07:58:54.610Z,73.18
2017-10-06T08:01:23.269Z,72.75
2017-10-06T08:03:50.751Z,72.79
2017-10-06T08:06:18.278Z,72.40
2017-10-06T08:08:45.763Z,72.12
2017-10-06T08:11:13.222Z,72.38
2017-10-06T08:13:41.255Z,72.27
2017-10-06T08:16:08.725Z,72.47
2017-10-06T08:18:36.711Z,72.28
2017-10-06T08:21:04.818Z,71.97
2017-10-06T08:23:32.340Z,71.08
2017-10-06T08:25:59.833Z,71.67
2017-10-06T08:28:27.330Z,71.33
2017-10-06T08:30:54.905Z,71.58
2017-10-06T08:33:22.412Z,71.17
2017-10-06T08:35:49.875Z,70.96
2017-10-06T08:38:22.194Z,71.01
2017-10-06T08:40:49.696Z,71.88
2017-10-06T08:43:18.487Z,71.84
2017-10-06T08:45:45.959Z,71.65
2017-10-06T08:48:13.449Z,72.15
2017-10-06T08:50:40.937Z,71.85
2017-10-06T08:53:08.446Z,72.63
2017-10-06T08:55:35.930Z,73.47
2017-10-06T08:58:04.479Z,74.01
2017-10-06T09:00:31.993Z,73.52
2017-10-06T09:02:59.513Z,74.28
2017-10-06T09:05:27.117Z,74.42
2017-10-06T09:07:54.582Z,74.50
2017-10-06T09:10:22.026Z,74.72
2017-10-06T09:12:49.538Z,75.22
2017-10-06T09:15:17.103Z,75.17
2017-10-06T09:17:44.583Z,75.56
2017-10-06T09:20:12.065Z,75.08
2017-10-06T09:22:39.604Z,75.53
2017-10-06T09:25:07.085Z,76.05
2017-10-06T09:27:34.607Z,75.75
2017-10-06T09:30:02.072Z,75.75
2017-10-06T09:32:29.557Z,75.89
2017-10-06T09:34:57.048Z,76.03
2017-10-06T09:37:24.552Z,76.27
2017-10-06T09:39:52.021Z,76.21
2017-10-06T09:42:19.525Z,76.07
2017-10-06T09:44:46.977Z,75.41
2017-10-06T09:47:14.478Z,75.44
2017-10-06T09:49:41.961Z,77.01
2017-10-06T09:52:09.421Z,76.82
2017-10-06T09:54:37.688Z,77.16
2017-10-06T09:57:05.167Z,76.79
2017-10-06T09:59:32.688Z,76.83
2017-10-06T10:02:00.181Z,77.14
2017-10-06T10:04:27.671Z,77.38
2017-10-06T10:06:55.160Z,76.99
2017-10-06T10:09:22.909Z,77.37
2017-10-06T10:11:50.393Z,77.88
2017-10-06T10:14:17.876Z,78.81
2017-10-06T10:16:46.320Z,79.29
2017-10-06T10:19:13.807Z,79.42
2017-10-06T10:21:41.316Z,79.51
2017-10-06T10:24:08.804Z,79.73
2017-10-06T10:26:36.300Z,80.04
2017-10-06T10:29:03.781Z,79.91
2017-10-06T10:31:31.265Z,79.42
2017-10-06T10:33:58.817Z,79.56
2017-10-06T10:36:26.379Z,79.62
2017-10-06T10:38:53.921Z,78.92
2017-10-06T10:41:21.393Z,78.83
2017-10-06T10:43:48.944Z,78.70
2017-10-06T10:46:16.408Z,78.72
2017-10-06T10:48:43.922Z,78.65
2017-10-06T10:51:11.466Z,77.68
2017-10-06T10:53:38.961Z,77.48
2017-10-06T10:56:06.446Z,77.56
2017-10-06T10:58:33.921Z,77.12
2017-10-06T11:01:01.439Z,77.47
2017-10-06T11:03:29.559Z,76.86
2017-10-06T11:05:57.066Z,75.59
2017-10-06T11:08:25.001Z,76.05
2017-10-06T11:10:52.452Z,76.35
2017-10-06T11:13:19.956Z,76.28
2017-10-06T11:15:47.425Z,74.93
2017-10-06T11:18:14.906Z,74.18
2017-10-06T11:20:42.640Z,73.80
2017-10-06T11:23:10.204Z,74.05
2017-10-06T11:25:37.700Z,73.24
2017-10-06T11:28:05.189Z,73.36
2017-10-06T11:30:32.734Z,72.79
2017-10-06T11:33:00.236Z,72.35
2017-10-06T11:35:27.717Z,70.72
2017-10-06T11:37:55.255Z,70.42
2017-10-06T11:40:22.780Z,70.78
2017-10-06T11:42:50.332Z,71.23
2017-10-06T11:45:17.835Z,70.18
2017-10-06T11:47:45.330Z,70.19
2017-10-06T11:50:12.831Z,69.39
2017-10-06T11:52:40.319Z,69.62
2017-10-06T11:55:07.865Z,69.44
2017-10-06T11:57:35.355Z,69.42
2017-10-06T12:00:02.875Z,69.20
2017-10-06T12:02:30.334Z,68.46
2017-10-06T12:04:57.862Z,67.83
2017-10-06T12:07:25.322Z,66.87
2017-10-06T12:09:53.622Z,66.69
2017-10-06T12:12:21.091Z,67.06
2017-10-06T12:14:48.662Z,67.22
2017-10-06T12:17:16.222Z,67.70
2017-10-06T12:19:43.765Z,68.14
2017-10-06T12:22:11.266Z,68.40
2017-10-06T12:24:38.749Z,69.37
2017-10-06T12:27:06.236Z,70.53
2017-10-06T12:29:33.747Z,71.13
2017-10-06T12:32:01.261Z,72.78
2017-10-06T12:34:28.721Z,73.62
2017-10-06T12:36:56.253Z,75.00
2017-10-06T12:39:23.751Z,76.03
2017-10-06T12:41:51.199Z,78.66
2017-10-06T12:44:18.720Z,79.80
2017-10-06T12:46:46.203Z,80.76
2017-10-06T12:49:13.684Z,78.15
2017-10-06T12:51:41.175Z,76.78
2017-10-06T12:54:08.645Z,76.50
2017-10-06T12:56:36.181Z,76.02
2017-10-06T12:59:03.666Z,76.21
2017-10-06T13:01:31.137Z,75.03
2017-10-06T13:03:58.629Z,75.58
2017-10-06T13:06:26.174Z,75.45
2017-10-06T13:08:53.654Z,76.33
2017-10-06T13:11:21.168Z,74.94
2017-10-06T13:13:48.697Z,75.17
2017-10-06T13:16:16.214Z,76.86
2017-10-06T13:18:43.840Z,76.51
2017-10-06T13:21:11.331Z,75.87
2017-10-06T13:23:39.569Z,76.50
2017-10-06T13:26:07.042Z,76.39
2017-10-06T13:28:34.500Z,77.04
2017-10-06T13:31:01.973Z,76.97
2017-10-06T13:33:29.473Z,76.52
2017-10-06T13:35:56.953Z,76.15
2017-10-06T13:38:24.455Z,75.88
2017-10-06T13:40:51.933Z,75.94
2017-10-06T13:43:19.426Z,76.94
2017-10-06T13:45:46.939Z,78.41
2017-10-06T13:48:14.442Z,78.94
2017-10-06T13:50:42.002Z,79.19
2017-10-06T13:53:09.507Z,79.52
2017-10-06T13:55:37.001Z,80.07
2017-10-06T13:58:06.962Z,78.97
2017-10-06T14:00:34.454Z,73.99
2017-10-06T14:03:01.960Z,73.61
2017-10-06T14:05:29.594Z,72.18
2017-10-06T14:07:57.056Z,72.89
2017-10-06T14:10:24.564Z,72.97
2017-10-06T14:12:52.101Z,72.02
2017-10-06T14:15:19.612Z,73.31
2017-10-06T14:17:47.093Z,72.88
2017-10-06T14:20:14.570Z,73.15
2017-10-06T14:22:42.052Z,73.69
2017-10-06T14:25:09.498Z,74.33
2017-10-06T14:27:37.089Z,72.94
2017-10-06T14:30:04.557Z,73.25
2017-10-06T14:32:32.041Z,73.81
2017-10-06T14:34:59.554Z,73.80
2017-10-06T14:37:27.058Z,73.83
2017-10-06T14:39:54.562Z,72.95
2017-10-06T14:42:22.050Z,70.84
2017-10-06T14:44:49.556Z,67.81
2017-10-06T14:47:17.094Z,67.92
2017-10-06T14:49:44.657Z,67.84
2017-10-06T14:52:12.153Z,67.75
2017-10-06T14:54:39.677Z,67.76
2017-10-06T14:57:07.150Z,66.74
2017-10-06T14:59:34.659Z,66.11
2017-10-06T15:02:02.126Z,65.70
2017-10-06T15:04:29.613Z,66.63
2017-10-06T15:06:57.182Z,68.71
2017-10-06T15:09:24.745Z,67.55
2017-10-06T15:11:52.259Z,68.97
2017-10-06T15:14:19.730Z,71.12
2017-10-06T15:16:47.327Z,73.33
2017-10-06T15:19:14.792Z,73.59
2017-10-06T15:21:42.301Z,71.73
2017-10-06T15:24:09.769Z,71.66
2017-10-06T15:26:38.475Z,72.07
2017-10-06T15:29:05.984Z,72.19
2017-10-06T15:31:34.182Z,72.39
2017-10-06T15:34:01.667Z,73.02
2017-10-06T15:36:29.227Z,73.88
2017-10-06T15:38:56.724Z,73.48
2017-10-06T15:41:24.215Z,73.74
2017-10-06T15:43:52.141Z,70.42
2017-10-06T15:46:20.526Z,70.70
2017-10-06T15:48:48.041Z,68.76
2017-10-06T15:51:15.551Z,69.54
2017-10-06T15:53:43.786Z,67.37
2017-10-06T15:56:11.347Z,68.58
2017-10-06T15:58:38.814Z,68.25
2017-10-06T16:01:06.325Z,67.70
2017-10-06T16:03:33.779Z,66.85
2017-10-06T16:06:01.527Z,67.08
2017-10-06T16:08:29.051Z,66.26
2017-10-06T16:10:57.393Z,67.24
2017-10-06T16:13:24.893Z,66.64
2017-10-06T16:15:52.339Z,67.27
2017-10-06T16:18:19.884Z,67.20
2017-10-06T16:20:47.342Z,67.19
2017-10-06T16:23:14.831Z,67.03
2017-10-06T16:25:42.289Z,67.34
2017-10-06T16:28:09.796Z,66.62
2017-10-06T16:30:37.318Z,66.58
2017-10-06T16:33:04.793Z,66.52
2017-10-06T16:35:32.278Z,64.93
2017-10-06T16:37:59.833Z,66.29
2017-10-06T16:40:27.327Z,66.83
2017-10-06T16:42:54.792Z,67.02
2017-10-06T16:45:22.337Z,66.85
2017-10-06T16:47:49.784Z,67.12
2017-10-06T16:50:17.287Z,67.45
2017-10-06T16:52:44.823Z,67.12
2017-10-06T16:55:12.264Z,67.34
2017-10-06T16:57:39.772Z,67.25
2017-10-06T17:00:07.561Z,67.53
2017-10-06T17:02:35.065Z,68.78
2017-10-06T17:05:02.560Z,68.80
2017-10-06T17:07:30.121Z,68.63
2017-10-06T17:09:57.608Z,68.58
2017-10-06T17:12:25.093Z,68.64
2017-10-06T17:14:52.600Z,68.96
2017-10-06T17:17:20.102Z,69.59
2017-10-06T17:19:47.621Z,69.76
2017-10-06T17:22:15.076Z,70.35
2017-10-06T17:24:42.833Z,70.99
2017-10-06T17:27:10.324Z,71.08
2017-10-06T17:29:37.793Z,71.02
2017-10-06T17:32:05.690Z,71.26
2017-10-06T17:34:33.173Z,71.71
2017-10-06T17:37:00.765Z,71.55
2017-10-06T17:39:28.242Z,71.67
2017-10-06T17:41:55.764Z,71.24
2017-10-06T17:44:23.218Z,71.43
2017-10-06T17:46:50.903Z,71.23
2017-10-06T17:49:18.383Z,71.25
2017-10-06T17:51:45.854Z,71.62
2017-10-06T17:54:13.337Z,71.10
2017-10-06T17:56:40.817Z,71.49
2017-10-06T17:59:08.338Z,71.44
2017-10-06T18:01:36.973Z,71.38
2017-10-06T18:04:04.477Z,71.76
2017-10-06T18:06:31.941Z,71.62
2017-10-06T18:08:59.427Z,71.62
2017-10-06T18:11:26.890Z,71.45
2017-10-06T18:13:54.358Z,71.12
2017-10-06T18:16:21.837Z,71.44
2017-10-06T18:18:49.337Z,71.68
2017-10-06T18:21:16.905Z,71.71
2017-10-06T18:23:44.362Z,71.83
2017-10-06T18:26:11.910Z,71.62
2017-10-06T18:28:40.220Z,71.61
2017-10-06T18:31:07.696Z,71.60
2017-10-06T18:33:35.244Z,71.92
2017-10-06T18:36:02.739Z,72.21
2017-10-06T18:38:30.263Z,72.25
2017-10-06T18:40:57.746Z,72.20
2017-10-06T18:43:25.257Z,72.70
2017-10-06T18:45:52.713Z,72.88
2017-10-06T18:48:20.196Z,72.37
2017-10-06T18:50:47.676Z,72.20
2017-10-06T18:53:15.153Z,72.81
2017-10-06T18:55:42.889Z,72.85
2017-10-06T18:58:10.349Z,72.60
2017-10-06T19:00:37.849Z,72.63
2017-10-06T19:03:05.309Z,72.20
2017-10-06T19:05:32.812Z,71.88
2017-10-06T19:08:00.253Z,71.87
2017-10-06T19:10:27.788Z,71.97
2017-10-06T19:12:55.229Z,72.11
2017-10-06T19:15:22.736Z,72.30
2017-10-06T19:17:50.205Z,72.36
2017-10-06T19:20:17.690Z,72.79
2017-10-06T19:22:45.210Z,72.86
2017-10-06T19:25:12.678Z,72.93
2017-10-06T19:27:40.161Z,72.63
2017-10-06T19:30:07.625Z,72.92
2017-10-06T19:32:35.149Z,72.88
2017-10-06T19:35:02.617Z,75.64
2017-10-06T19:37:30.106Z,81.81
2017-10-06T19:39:57.605Z,80.30
2017-10-06T19:42:25.107Z,77.94
2017-10-06T19:44:56.017Z,75.61
2017-10-06T19:47:23.466Z,73.19
2017-10-06T19:49:50.982Z,68.87
2017-10-06T19:52:18.456Z,68.44
2017-10-06T19:54:46.040Z,68.94
2017-10-06T19:59:46.300Z,70.14
2017-10-06T20:09:52.093Z,71.70
2017-10-06T20:12:19.593Z,72.32
2017-10-06T20:17:19.869Z,72.09
2017-10-06T20:24:52.981Z,72.56
2017-10-06T20:29:53.313Z,72.82
2017-10-06T20:34:54.342Z,72.88
2017-10-06T20:39:54.711Z,73.03
2017-10-06T20:42:22.173Z,72.98
2017-10-06T20:52:28.720Z,73.19
2017-10-06T20:57:28.916Z,73.55
2017-10-06T20:59:56.429Z,73.85
2017-10-06T21:07:29.641Z,74.37
2017-10-06T21:15:02.497Z,75.35
2017-10-06T21:20:02.634Z,77.03
2017-10-06T21:22:30.088Z,77.56
2017-10-06T21:30:03.000Z,77.81
2017-10-06T21:37:35.914Z,78.58
2017-10-06T21:40:03.377Z,78.87
2017-10-06T21:47:36.544Z,79.23
2017-10-06T21:50:04.905Z,79.09
2017-10-06T21:57:38.270Z,78.52
2017-10-06T22:00:05.817Z,78.36
2017-10-06T22:02:33.272Z,78.42
2017-10-06T22:15:13.857Z,79.58
2017-10-06T22:20:14.172Z,79.11
2017-10-06T22:27:47.960Z,78.12
2017-10-06T22:30:15.429Z,77.40
2017-10-06T22:42:54.118Z,77.35
2017-10-06T22:45:21.589Z,77.39
2017-10-06T22:50:21.805Z,77.23
2017-10-06T22:55:23.114Z,76.83
2017-10-06T22:57:50.613Z,76.36
2017-10-06T23:00:18.079Z,76.14
2017-10-06T23:02:45.570Z,76.13
2017-10-06T23:07:46.169Z,77.47
2017-10-06T23:10:13.685Z,77.92
2017-10-06T23:12:41.162Z,78.54
2017-10-06T23:20:14.422Z,79.12
2017-10-06T23:30:20.300Z,78.24
2017-10-06T23:32:47.814Z,78.51
2017-10-06T23:35:15.280Z,78.88
2017-10-06T23:37:42.806Z,79.23
2017-10-06T23:42:43.169Z,79.95
2017-10-06T23:50:16.408Z,80.17
2017-10-06T23:52:44.587Z,80.21
2017-10-06T23:57:45.709Z,79.21
